Date,TemperatureHighF,TemperatureAvgF,TemperatureLowF,DewpointHighF,DewpointAvgF,DewpointLowF,HumidityHigh,HumidityAvg,HumidityLow,PressureMaxIn,PressureMinIn,WindSpeedMaxMPH,WindSpeedAvgMPH,GustSpeedMaxMPH,PrecipitationSumIn
2013-2-1,32,29,23,22,10,4,82,45,32,30.18,29.77,14,3,20,0.00
2013-2-2,30,24,18,22,7,2,94,52,34,30.24,29.97,11,4,20,0.00
2013-2-3,32,26,23,23,21,19,95,83,64,29.94,29.74,5,0,8,0.00
2013-2-4,31,27,21,24,12,8,92,56,41,29.94,29.77,9,3,21,0.00
2013-2-5,33,31,28,30,27,19,95,88,68,29.85,29.80,5,2,8,0.00
2013-2-6,42,34,27,31,25,18,97,72,45,30.27,29.83,5,1,16,0.00
2013-2-7,35,29,23,23,16,11,80,61,46,30.42,30.21,11,2,15,0.00
2013-2-8,40,35,31,37,33,25,97,91,70,30.18,29.59,12,5,20,0.00
2013-2-9,36,29,23,31,20,8,98,72,45,30.27,29.68,5,1,21,0.00
2013-2-10,42,27,15,22,11,8,78,56,28,30.42,30.24,6,1,11,0.00
2013-2-11,51,41,32,51,39,24,99,94,75,30.24,29.59,8,1,16,0.00
2013-2-12,49,42,32,42,29,24,96,60,43,29.88,29.68,16,1,21,0.00
2013-2-13,44,35,26,32,27,23,97,74,49,29.88,29.59,5,2,12,0.00
2013-2-14,48,39,32,38,32,29,98,79,50,29.94,29.65,5,1,16,0.00
2013-2-15,58,43,31,37,32,29,96,70,40,29.94,29.83,9,2,19,0.00
2013-2-16,41,36,32,35,28,16,95,74,51,29.88,29.68,5,1,13,0.00
2013-2-17,34,29,21,12,7,-1,47,40,34,29.97,29.65,8,2,23,0.00
2013-2-18,38,28,19,12,6,0,50,40,29,30.21,29.97,8,2,19,0.00
2013-2-19,51,38,28,44,29,12,96,72,48,30.12,29.65,12,5,26,0.00
2013-2-20,37,32,26,27,15,9,68,51,38,29.94,29.71,13,4,24,0.00
2013-2-21,38,30,24,17,13,9,60,50,40,30.21,29.94,8,3,23,0.00
2013-2-22,38,30,23,31,21,13,90,69,57,30.33,30.18,6,2,13,0.00
2013-2-23,47,41,34,46,40,32,99,97,93,30.18,29.74,11,2,14,0.00
2013-2-24,48,40,32,41,32,21,98,76,53,29.91,29.68,6,1,18,0.00
2013-2-25,46,37,29,28,25,21,83,63,48,30.15,29.97,4,1,11,0.00
2013-2-26,45,37,27,38,31,25,94,79,57,30.18,29.74,16,7,26,0.00
2013-2-27,54,46,40,50,43,39,98,88,65,29.74,29.44,14,4,26,0.00
2013-2-28,48,44,38,38,33,25,80,66,45,29.59,29.50,7,2,15,0.00